McCombs, Kentucky
Current Conditions -  °F | °C
As of 10:55 PM on Thursday 27 Nov 2014 (Local Time) from KPBX Reporting Station
Light Snow Light Snow  
Wind Chill: 29°   Ceiling: 1600
Heat Index: 29°   Visibility: 10mi
Dew Point: 24°   Wind: 3mph
Humidity: 82%   Direction: 250°WSW
Pressure: 30.34"   Gusts: NA
Location:  37.5348°N, 82.513°W
Report Text: KPBX 280355Z AUTO 25003KT 10SM -SN OVC016 M02/M04 A3034 RMK AO2 T10181045
Loading
Personal Weather Stations






























Interactive Weather Map New forecast layout! Learn more

10-Day Weather Forecast

Advertisements
Track Severe Weather on mobile